Time;durP1;ratioP1;P1;durP2;ratioP2;P2;SDS_P1;SDS_P2;PMS_P1;PMS_P2;Temp;Humidity;BMP_temperature;BMP_pressure;BME280_temperature;BME280_humidity;BME280_pressure;Samples;Min_cycle;Max_cycle;Signal;HPM_P1;HPM_P2
2022/08/31 00:06:16;;;;;;;;;;;28.60;91.20;;;;;;5104354;28;19934;-54
2022/08/31 00:08:42;;;;;;;;;;;28.50;91.10;;;;;;5103890;28;19920;-53
2022/08/31 00:11:12;;;;;;;;;;;28.50;91.20;;;;;;5104759;28;19939;-53
2022/08/31 00:13:42;;;;;;;;;;;28.50;91.30;;;;;;5103716;28;19912;-53
2022/08/31 00:16:11;;;;;;;;;;;28.50;91.40;;;;;;5103893;28;19921;-57
2022/08/31 00:18:37;;;;;;;;;;;28.50;91.60;;;;;;5098967;28;19920;-54
2022/08/31 00:21:03;;;;;;;;;;;28.50;91.70;;;;;;5103862;28;19919;-54
2022/08/31 00:23:30;;;;;;;;;;;28.50;91.70;;;;;;5104581;28;19915;-54
2022/08/31 00:25:58;;;;;;;;;;;28.40;91.80;;;;;;5104813;28;19912;-54
2022/08/31 00:28:25;;;;;;;;;;;28.40;91.70;;;;;;5103602;28;20207;-54
2022/08/31 00:31:17;;;;;;;;;;;28.40;91.80;;;;;;5104651;28;19920;-55
2022/08/31 00:33:44;;;;;;;;;;;28.40;91.80;;;;;;5021401;28;19951;-55
2022/08/31 00:36:12;;;;;;;;;;;28.40;91.90;;;;;;5100163;28;19974;-58
2022/08/31 00:38:40;;;;;;;;;;;28.30;91.80;;;;;;5104261;28;19927;-57
2022/08/31 00:41:07;;;;;;;;;;;28.30;91.80;;;;;;5104260;28;20078;-55
2022/08/31 00:43:37;;;;;;;;;;;28.30;91.80;;;;;;5104048;28;19915;-54
2022/08/31 00:46:06;;;;;;;;;;;28.30;91.90;;;;;;5104558;28;19912;-56
2022/08/31 00:48:32;;;;;;;;;;;28.30;91.80;;;;;;5103755;28;19908;-53
2022/08/31 00:51:00;;;;;;;;;;;28.30;91.90;;;;;;5104435;28;19915;-57
2022/08/31 00:53:28;;;;;;;;;;;28.30;92.00;;;;;;5104360;28;19950;-53
2022/08/31 00:55:54;;;;;;;;;;;28.20;92.00;;;;;;5104124;28;19912;-55
2022/08/31 00:58:21;;;;;;;;;;;28.20;92.00;;;;;;5104022;28;19961;-55
2022/08/31 01:00:47;;;;;;;;;;;28.20;92.00;;;;;;5103771;28;19916;-56
2022/08/31 01:03:14;;;;;;;;;;;28.20;92.00;;;;;;5103812;28;20009;-53
2022/08/31 01:05:41;;;;;;;;;;;28.10;92.00;;;;;;5104515;28;20211;-54
2022/08/31 01:08:07;;;;;;;;;;;28.10;92.10;;;;;;5104022;28;19908;-54
2022/08/31 01:10:38;;;;;;;;;;;28.10;92.10;;;;;;5103966;28;19951;-54
2022/08/31 01:13:08;;;;;;;;;;;28.20;92.20;;;;;;5103879;28;20002;-53
2022/08/31 01:15:44;;;;;;;;;;;28.10;92.20;;;;;;5104095;28;19920;-54
2022/08/31 01:18:10;;;;;;;;;;;28.10;92.20;;;;;;5104117;28;19935;-54
2022/08/31 01:20:42;;;;;;;;;;;28.10;92.20;;;;;;5107974;28;19919;-54
2022/08/31 01:23:21;;;;;;;;;;;28.10;92.30;;;;;;5107325;28;19919;-53
2022/08/31 01:25:48;;;;;;;;;;;28.10;92.30;;;;;;5107994;28;19993;-54
2022/08/31 01:28:43;;;;;;;;;;;28.00;92.20;;;;;;5107191;28;19939;-58
2022/08/31 01:31:19;;;;;;;;;;;28.00;92.20;;;;;;5090126;28;19916;-54
2022/08/31 01:33:45;;;;;;;;;;;28.00;92.20;;;;;;5106775;28;19908;-55
2022/08/31 01:36:12;;;;;;;;;;;28.00;92.20;;;;;;5107887;28;20013;-52
2022/08/31 01:38:42;;;;;;;;;;;27.90;92.10;;;;;;5107154;28;19911;-54
2022/08/31 01:41:08;;;;;;;;;;;28.00;92.10;;;;;;5107488;28;19916;-55
2022/08/31 01:43:37;;;;;;;;;;;28.00;92.10;;;;;;5107128;28;20104;-55
2022/08/31 01:46:04;;;;;;;;;;;28.00;92.10;;;;;;5107724;28;19949;-57
2022/08/31 01:48:38;;;;;;;;;;;28.00;92.10;;;;;;5106713;28;19948;-58
2022/08/31 01:51:04;;;;;;;;;;;27.90;92.10;;;;;;5107496;28;19975;-55
2022/08/31 01:53:31;;;;;;;;;;;27.90;92.00;;;;;;5106967;28;20018;-59
2022/08/31 01:55:57;;;;;;;;;;;27.90;91.90;;;;;;5100845;28;19944;-52
2022/08/31 01:58:27;;;;;;;;;;;27.80;91.70;;;;;;5088443;28;19908;-58
2022/08/31 02:00:56;;;;;;;;;;;27.80;91.70;;;;;;5086783;28;19954;-59
2022/08/31 02:03:22;;;;;;;;;;;27.80;91.60;;;;;;5085798;28;19908;-59
2022/08/31 02:05:48;;;;;;;;;;;27.80;91.70;;;;;;5087887;28;19920;-58
2022/08/31 02:08:15;;;;;;;;;;;27.70;91.70;;;;;;5100266;28;19915;-59
2022/08/31 02:10:41;;;;;;;;;;;27.70;91.70;;;;;;5106035;28;20193;-58
2022/08/31 02:13:07;;;;;;;;;;;27.70;91.80;;;;;;5102789;28;19996;-60
2022/08/31 02:15:37;;;;;;;;;;;27.70;91.80;;;;;;5100258;28;19926;-58
2022/08/31 02:18:03;;;;;;;;;;;27.60;91.70;;;;;;5099588;28;19990;-55
2022/08/31 02:20:29;;;;;;;;;;;27.60;91.70;;;;;;5096677;28;19995;-57
2022/08/31 02:22:58;;;;;;;;;;;27.60;91.80;;;;;;5105762;28;19908;-52
2022/08/31 02:25:30;;;;;;;;;;;27.50;91.80;;;;;;5105616;28;19912;-54
2022/08/31 02:27:56;;;;;;;;;;;27.60;91.90;;;;;;5087023;28;20253;-58
2022/08/31 02:30:22;;;;;;;;;;;27.60;91.90;;;;;;5105707;28;19975;-56
2022/08/31 02:32:52;;;;;;;;;;;27.50;91.80;;;;;;5105806;28;20108;-54
2022/08/31 02:35:20;;;;;;;;;;;27.50;91.80;;;;;;5106313;28;19950;-60
2022/08/31 02:37:47;;;;;;;;;;;27.60;91.80;;;;;;5105517;28;19987;-54
2022/08/31 02:40:13;;;;;;;;;;;27.60;91.90;;;;;;5105164;28;19912;-54
2022/08/31 02:42:40;;;;;;;;;;;27.50;91.60;;;;;;5105789;28;19908;-53
2022/08/31 02:45:07;;;;;;;;;;;27.50;91.30;;;;;;5105534;28;19912;-54
2022/08/31 02:47:33;;;;;;;;;;;27.50;91.20;;;;;;5105758;28;19908;-50
2022/08/31 02:50:01;;;;;;;;;;;27.40;91.20;;;;;;5106009;28;19947;-57
2022/08/31 02:52:27;;;;;;;;;;;27.40;91.20;;;;;;5105822;28;20211;-52
2022/08/31 02:54:53;;;;;;;;;;;27.30;91.10;;;;;;5105655;28;19988;-50
2022/08/31 02:57:19;;;;;;;;;;;27.40;91.20;;;;;;5106039;28;20099;-51
2022/08/31 02:59:46;;;;;;;;;;;27.30;91.10;;;;;;5105354;28;19912;-54
2022/08/31 03:02:12;;;;;;;;;;;27.30;91.10;;;;;;5105186;28;19908;-52
2022/08/31 03:04:39;;;;;;;;;;;27.30;91.00;;;;;;5105236;28;19912;-49
2022/08/31 03:07:05;;;;;;;;;;;27.30;90.90;;;;;;5104577;28;19914;-50
2022/08/31 03:09:31;;;;;;;;;;;27.30;90.90;;;;;;5105225;28;20014;-50
2022/08/31 03:11:58;;;;;;;;;;;27.10;90.70;;;;;;5105584;28;19939;-54
2022/08/31 03:14:25;;;;;;;;;;;27.10;90.90;;;;;;5105411;28;19916;-56
2022/08/31 03:16:52;;;;;;;;;;;27.10;90.80;;;;;;5098342;28;20131;-53
2022/08/31 03:19:18;;;;;;;;;;;27.10;90.80;;;;;;5091836;28;19934;-49
2022/08/31 03:21:45;;;;;;;;;;;27.10;90.60;;;;;;5090512;28;19962;-50
2022/08/31 03:24:13;;;;;;;;;;;27.10;90.60;;;;;;5084648;28;19919;-49
2022/08/31 03:26:39;;;;;;;;;;;27.10;90.70;;;;;;5084716;28;19904;-51
2022/08/31 03:29:06;;;;;;;;;;;27.00;90.90;;;;;;5084837;28;19913;-51
2022/08/31 03:31:32;;;;;;;;;;;27.00;90.80;;;;;;5084991;28;19914;-51
2022/08/31 03:33:58;;;;;;;;;;;27.00;90.80;;;;;;5094043;28;19916;-50
2022/08/31 03:36:24;;;;;;;;;;;27.00;90.80;;;;;;5098530;28;19908;-52
2022/08/31 03:38:50;;;;;;;;;;;27.00;90.70;;;;;;5104664;28;19912;-51
2022/08/31 03:41:19;;;;;;;;;;;26.90;90.80;;;;;;5104375;28;19950;-54
2022/08/31 03:43:45;;;;;;;;;;;26.90;90.80;;;;;;5103657;28;20104;-47
2022/08/31 03:46:11;;;;;;;;;;;26.90;90.80;;;;;;5103324;28;20274;-50
2022/08/31 03:48:37;;;;;;;;;;;26.90;90.80;;;;;;5096606;28;19979;-50
2022/08/31 03:51:04;;;;;;;;;;;27.00;90.90;;;;;;5105207;28;19912;-53
2022/08/31 03:53:30;;;;;;;;;;;27.00;90.90;;;;;;5104081;28;19916;-56
2022/08/31 03:56:00;;;;;;;;;;;27.00;90.90;;;;;;5105118;28;20066;-52
2022/08/31 03:58:30;;;;;;;;;;;27.00;90.90;;;;;;5104686;28;19908;-53
2022/08/31 04:00:57;;;;;;;;;;;27.10;90.90;;;;;;5105142;28;19912;-53
2022/08/31 04:03:23;;;;;;;;;;;27.10;91.10;;;;;;5104528;28;19908;-51
2022/08/31 04:05:49;;;;;;;;;;;27.10;91.00;;;;;;5103240;28;20181;-53
2022/08/31 04:08:17;;;;;;;;;;;27.10;91.00;;;;;;5104889;28;19908;-50
2022/08/31 04:10:44;;;;;;;;;;;27.10;90.90;;;;;;5103889;28;19923;-51
2022/08/31 04:13:10;;;;;;;;;;;27.10;91.00;;;;;;5103901;28;19908;-54
2022/08/31 04:15:36;;;;;;;;;;;27.00;90.90;;;;;;5104471;28;19951;-52
2022/08/31 04:18:03;;;;;;;;;;;27.00;90.90;;;;;;5102679;28;19911;-50
2022/08/31 04:20:32;;;;;;;;;;;27.00;90.90;;;;;;5104617;28;19994;-50
2022/08/31 04:22:59;;;;;;;;;;;27.00;90.90;;;;;;5104418;28;19908;-47
2022/08/31 04:25:25;;;;;;;;;;;27.00;90.90;;;;;;5099280;28;19912;-54
2022/08/31 04:27:53;;;;;;;;;;;27.00;90.80;;;;;;5104526;28;19975;-53
2022/08/31 04:30:20;;;;;;;;;;;27.00;90.80;;;;;;5104605;28;19912;-51
2022/08/31 04:32:47;;;;;;;;;;;27.00;90.90;;;;;;5104444;28;19908;-50
2022/08/31 04:35:13;;;;;;;;;;;26.90;90.80;;;;;;5104632;28;19966;-49
2022/08/31 04:37:42;;;;;;;;;;;26.90;90.80;;;;;;5097998;28;19908;-53
2022/08/31 04:40:18;;;;;;;;;;;26.90;90.80;;;;;;5086453;28;19912;-51
2022/08/31 04:42:44;;;;;;;;;;;26.90;90.80;;;;;;5083791;28;19905;-47
2022/08/31 04:45:14;;;;;;;;;;;26.90;90.70;;;;;;5084100;28;20219;-50
2022/08/31 04:47:41;;;;;;;;;;;26.90;90.70;;;;;;5083853;28;19904;-49
2022/08/31 04:50:11;;;;;;;;;;;26.90;90.80;;;;;;5084086;28;19920;-52
2022/08/31 04:52:37;;;;;;;;;;;26.90;90.80;;;;;;5099862;28;19908;-52
2022/08/31 04:55:04;;;;;;;;;;;26.90;90.80;;;;;;5108261;28;19958;-48
2022/08/31 04:57:32;;;;;;;;;;;26.90;90.90;;;;;;5108056;28;19909;-52
2022/08/31 04:59:58;;;;;;;;;;;26.90;90.90;;;;;;5108249;28;19943;-50
2022/08/31 05:02:25;;;;;;;;;;;26.90;91.00;;;;;;5108078;28;19908;-53
2022/08/31 05:04:51;;;;;;;;;;;26.90;91.00;;;;;;5108318;28;20231;-50
2022/08/31 05:07:17;;;;;;;;;;;26.90;91.00;;;;;;5107932;28;19904;-49
2022/08/31 05:09:43;;;;;;;;;;;26.90;91.00;;;;;;5108089;28;19924;-46
2022/08/31 05:12:09;;;;;;;;;;;26.90;91.20;;;;;;5107037;28;19904;-56
2022/08/31 05:14:35;;;;;;;;;;;26.90;91.10;;;;;;5107718;28;19920;-52
2022/08/31 05:17:02;;;;;;;;;;;26.90;91.20;;;;;;5107697;28;19908;-48
2022/08/31 05:19:28;;;;;;;;;;;26.80;91.10;;;;;;5107968;28;19994;-49
2022/08/31 05:21:54;;;;;;;;;;;26.80;91.10;;;;;;5107691;28;20258;-54
2022/08/31 05:24:21;;;;;;;;;;;26.80;91.10;;;;;;5107561;28;20235;-51
2022/08/31 05:26:49;;;;;;;;;;;26.80;91.10;;;;;;5107629;28;19907;-50
2022/08/31 05:29:18;;;;;;;;;;;26.80;91.20;;;;;;5107564;28;19958;-56
2022/08/31 05:31:44;;;;;;;;;;;26.80;91.20;;;;;;5107363;28;19908;-49
2022/08/31 05:34:14;;;;;;;;;;;26.70;91.20;;;;;;5107501;28;19926;-49
2022/08/31 05:36:41;;;;;;;;;;;26.80;91.10;;;;;;5106665;28;19962;-49
2022/08/31 05:39:10;;;;;;;;;;;26.70;91.00;;;;;;5106504;28;19976;-51
2022/08/31 05:41:38;;;;;;;;;;;26.70;91.00;;;;;;5107158;28;20147;-47
2022/08/31 05:44:04;;;;;;;;;;;26.70;91.00;;;;;;5107241;28;19979;-48
2022/08/31 05:46:30;;;;;;;;;;;26.70;91.10;;;;;;5107026;28;19969;-52
2022/08/31 05:48:57;;;;;;;;;;;26.60;91.10;;;;;;5106997;28;19951;-50
2022/08/31 05:51:23;;;;;;;;;;;26.70;91.10;;;;;;5107150;28;19971;-58
2022/08/31 05:53:49;;;;;;;;;;;26.60;91.00;;;;;;5106803;28;19904;-49
2022/08/31 05:56:18;;;;;;;;;;;26.60;90.90;;;;;;5107321;28;19915;-49
2022/08/31 05:58:45;;;;;;;;;;;26.60;90.90;;;;;;5106970;28;19912;-55
2022/08/31 06:01:13;;;;;;;;;;;26.60;90.90;;;;;;5107276;28;20177;-54
2022/08/31 06:03:40;;;;;;;;;;;26.60;90.90;;;;;;5106819;28;19908;-52
2022/08/31 06:06:08;;;;;;;;;;;26.60;90.90;;;;;;5106327;28;19912;-53
2022/08/31 06:08:35;;;;;;;;;;;26.60;91.00;;;;;;5106644;28;19927;-50
2022/08/31 06:11:02;;;;;;;;;;;26.60;91.00;;;;;;5107216;28;19919;-46
2022/08/31 06:13:30;;;;;;;;;;;26.60;91.10;;;;;;5106821;28;19904;-51
2022/08/31 06:15:57;;;;;;;;;;;26.60;91.10;;;;;;5106811;28;19928;-51
2022/08/31 06:18:49;;;;;;;;;;;26.60;91.10;;;;;;5105986;28;20042;-47
2022/08/31 06:21:17;;;;;;;;;;;26.60;91.10;;;;;;5106469;28;19950;-53
2022/08/31 06:23:43;;;;;;;;;;;26.60;91.20;;;;;;5106494;28;20104;-50
2022/08/31 06:26:14;;;;;;;;;;;26.50;91.30;;;;;;5106922;28;19908;-49
2022/08/31 06:28:43;;;;;;;;;;;26.60;91.30;;;;;;5106294;28;19916;-50
2022/08/31 06:31:14;;;;;;;;;;;26.50;91.30;;;;;;5106798;28;19958;-50
2022/08/31 06:33:42;;;;;;;;;;;26.50;91.30;;;;;;5106154;28;20103;-51
2022/08/31 06:36:12;;;;;;;;;;;26.50;91.30;;;;;;5106755;28;19935;-48
2022/08/31 06:38:39;;;;;;;;;;;26.50;91.30;;;;;;5106207;28;20211;-49
2022/08/31 06:41:16;;;;;;;;;;;26.50;91.30;;;;;;5106583;28;19912;-49
2022/08/31 06:43:44;;;;;;;;;;;26.50;91.40;;;;;;5106105;28;19931;-53
2022/08/31 06:46:11;;;;;;;;;;;26.40;91.40;;;;;;5106588;28;19935;-49
2022/08/31 06:48:38;;;;;;;;;;;26.40;91.30;;;;;;5105874;28;19904;-49
2022/08/31 06:51:05;;;;;;;;;;;26.40;91.40;;;;;;5106501;28;19918;-52
2022/08/31 06:53:32;;;;;;;;;;;26.40;91.50;;;;;;5105887;28;20189;-49
2022/08/31 06:56:02;;;;;;;;;;;26.40;91.40;;;;;;5106187;28;19936;-46
2022/08/31 06:58:29;;;;;;;;;;;26.40;91.40;;;;;;5105751;28;20219;-47
2022/08/31 07:00:57;;;;;;;;;;;26.40;91.40;;;;;;5106231;28;19912;-50
2022/08/31 07:03:31;;;;;;;;;;;26.40;91.30;;;;;;5105707;28;19904;-50
2022/08/31 07:05:58;;;;;;;;;;;26.40;91.40;;;;;;5106086;28;19912;-51
2022/08/31 07:08:24;;;;;;;;;;;26.40;91.40;;;;;;5105577;28;19927;-51
2022/08/31 07:10:50;;;;;;;;;;;26.40;91.50;;;;;;5106002;28;19952;-50
2022/08/31 07:13:16;;;;;;;;;;;26.40;91.40;;;;;;5105714;28;20207;-47
2022/08/31 07:15:42;;;;;;;;;;;26.40;91.40;;;;;;5105690;28;19916;-49
2022/08/31 07:18:09;;;;;;;;;;;26.40;91.50;;;;;;5105365;28;20135;-52
2022/08/31 07:20:35;;;;;;;;;;;26.30;91.50;;;;;;5105763;28;19919;-47
2022/08/31 07:23:01;;;;;;;;;;;26.30;91.50;;;;;;5104550;28;19911;-47
2022/08/31 07:25:27;;;;;;;;;;;26.30;91.40;;;;;;5105406;28;19936;-51
2022/08/31 07:27:54;;;;;;;;;;;26.30;91.40;;;;;;5105276;28;19912;-52
2022/08/31 07:30:21;;;;;;;;;;;26.30;91.50;;;;;;5105432;28;19920;-56
2022/08/31 07:32:49;;;;;;;;;;;26.30;91.40;;;;;;5105154;28;19949;-52
2022/08/31 07:35:16;;;;;;;;;;;26.30;91.40;;;;;;5105395;28;19912;-50
2022/08/31 07:43:11;;;;;;;;;;;26.20;91.60;;;;;;5104910;28;19914;-46
2022/08/31 07:45:38;;;;;;;;;;;26.20;91.60;;;;;;5105289;28;19919;-50
2022/08/31 07:48:04;;;;;;;;;;;26.20;91.50;;;;;;5085177;28;19915;-54
2022/08/31 07:50:31;;;;;;;;;;;26.20;91.50;;;;;;5086375;28;20165;-46
2022/08/31 07:52:57;;;;;;;;;;;26.20;91.50;;;;;;5104882;28;19908;-48
2022/08/31 07:55:24;;;;;;;;;;;26.10;91.50;;;;;;5105172;28;19915;-48
2022/08/31 07:57:53;;;;;;;;;;;26.20;91.60;;;;;;5100345;28;19908;-47
2022/08/31 08:00:24;;;;;;;;;;;26.20;91.50;;;;;;5087962;28;19913;-45
2022/08/31 08:02:51;;;;;;;;;;;26.10;91.60;;;;;;5084422;28;20085;-47
2022/08/31 08:05:21;;;;;;;;;;;26.10;91.60;;;;;;5084535;28;19958;-53
2022/08/31 08:07:49;;;;;;;;;;;26.10;91.60;;;;;;5084345;28;19915;-48
2022/08/31 08:10:16;;;;;;;;;;;26.10;91.60;;;;;;5084559;28;19924;-48
2022/08/31 08:12:45;;;;;;;;;;;26.10;91.70;;;;;;5084235;28;19978;-46
2022/08/31 08:15:12;;;;;;;;;;;26.10;91.70;;;;;;5084384;28;20255;-51
2022/08/31 08:17:38;;;;;;;;;;;26.10;91.70;;;;;;5084345;28;20131;-47
2022/08/31 08:20:05;;;;;;;;;;;26.10;91.70;;;;;;5084397;28;19912;-55
2022/08/31 08:22:31;;;;;;;;;;;26.00;91.70;;;;;;5084085;28;19911;-46
2022/08/31 08:24:59;;;;;;;;;;;26.10;92.00;;;;;;5084459;28;19936;-50
2022/08/31 08:27:26;;;;;;;;;;;26.10;91.70;;;;;;5084108;28;19909;-47
2022/08/31 08:29:52;;;;;;;;;;;26.10;91.80;;;;;;5083945;28;19920;-49
2022/08/31 08:32:19;;;;;;;;;;;26.00;91.80;;;;;;5084047;28;19944;-49
2022/08/31 08:34:45;;;;;;;;;;;26.00;91.80;;;;;;5095096;28;19932;-51
2022/08/31 08:37:12;;;;;;;;;;;26.00;91.90;;;;;;5104343;28;20242;-53
2022/08/31 08:39:39;;;;;;;;;;;26.00;91.90;;;;;;5104399;28;19914;-52
2022/08/31 08:42:07;;;;;;;;;;;25.90;91.90;;;;;;5104109;28;19904;-49
2022/08/31 08:44:35;;;;;;;;;;;25.90;91.90;;;;;;5104329;28;19913;-47
2022/08/31 08:47:13;;;;;;;;;;;25.90;91.80;;;;;;5104145;28;19904;-51
2022/08/31 08:49:45;;;;;;;;;;;25.90;91.90;;;;;;5104101;28;19916;-49
2022/08/31 08:52:30;;;;;;;;;;;25.90;92.00;;;;;;5104153;28;19972;-54
2022/08/31 08:55:02;;;;;;;;;;;25.90;92.00;;;;;;5104255;28;20118;-49
2022/08/31 08:57:29;;;;;;;;;;;25.90;92.00;;;;;;5104391;28;19912;-51
2022/08/31 08:59:57;;;;;;;;;;;25.90;92.10;;;;;;5104242;28;20230;-55
2022/08/31 09:02:34;;;;;;;;;;;25.90;92.10;;;;;;5104122;28;19911;-55
2022/08/31 09:05:03;;;;;;;;;;;25.90;92.10;;;;;;5104250;28;20082;-54
2022/08/31 09:07:36;;;;;;;;;;;25.90;92.00;;;;;;5104121;28;19910;-51
2022/08/31 09:10:11;;;;;;;;;;;25.90;92.00;;;;;;5104277;28;19939;-46
2022/08/31 09:12:37;;;;;;;;;;;25.90;91.90;;;;;;5103873;28;19904;-48
2022/08/31 09:15:26;;;;;;;;;;;25.80;91.90;;;;;;5103999;28;20089;-49
2022/08/31 09:17:54;;;;;;;;;;;25.80;92.00;;;;;;5103730;28;19904;-51
2022/08/31 09:20:20;;;;;;;;;;;25.80;92.00;;;;;;5086075;28;19934;-50
2022/08/31 09:22:49;;;;;;;;;;;25.80;91.90;;;;;;5103842;28;20077;-52
2022/08/31 09:25:18;;;;;;;;;;;25.80;91.80;;;;;;5104000;28;20195;-48
2022/08/31 09:27:58;;;;;;;;;;;25.80;91.90;;;;;;5103782;28;19914;-49
2022/08/31 09:30:43;;;;;;;;;;;25.80;92.00;;;;;;5104016;28;19924;-47
2022/08/31 09:33:17;;;;;;;;;;;25.70;92.00;;;;;;5103666;28;19908;-55
2022/08/31 09:35:44;;;;;;;;;;;25.70;91.90;;;;;;5104146;28;20088;-50
2022/08/31 09:38:15;;;;;;;;;;;25.70;91.90;;;;;;5103769;28;19974;-47
2022/08/31 09:40:43;;;;;;;;;;;25.70;91.90;;;;;;5105445;28;20104;-48
2022/08/31 09:43:10;;;;;;;;;;;25.70;91.90;;;;;;5107154;28;19915;-46
2022/08/31 09:45:38;;;;;;;;;;;25.70;91.90;;;;;;5106774;28;20212;-48
2022/08/31 09:48:06;;;;;;;;;;;25.70;92.10;;;;;;5107134;28;19946;-48
2022/08/31 09:50:46;;;;;;;;;;;25.70;91.90;;;;;;5107252;28;19918;-47
2022/08/31 09:56:14;;;;;;;;;;;25.60;91.80;;;;;;5107541;28;19919;-45
2022/08/31 09:59:03;;;;;;;;;;;25.70;91.80;;;;;;5106926;28;19908;-51
2022/08/31 10:01:37;;;;;;;;;;;25.60;91.70;;;;;;5107127;28;20135;-54
2022/08/31 10:04:07;;;;;;;;;;;25.60;91.70;;;;;;5104312;28;19924;-48
2022/08/31 10:06:54;;;;;;;;;;;25.60;91.70;;;;;;5102548;28;20021;-48
2022/08/31 10:09:25;;;;;;;;;;;25.60;91.60;;;;;;5065604;28;19916;-51
2022/08/31 10:11:53;;;;;;;;;;;25.60;91.60;;;;;;5106640;28;20081;-46
2022/08/31 10:14:26;;;;;;;;;;;25.60;91.60;;;;;;5106535;28;19912;-55
2022/08/31 10:16:55;;;;;;;;;;;25.60;91.50;;;;;;5106377;28;19946;-57
2022/08/31 10:19:29;;;;;;;;;;;25.60;91.50;;;;;;5106555;28;20135;-57
2022/08/31 10:22:01;;;;;;;;;;;25.50;91.50;;;;;;5106455;28;20226;-56
2022/08/31 10:24:27;;;;;;;;;;;25.50;91.60;;;;;;5105825;28;19986;-58
2022/08/31 10:27:06;;;;;;;;;;;25.40;91.80;;;;;;5106238;28;19908;-55
2022/08/31 10:29:35;;;;;;;;;;;25.40;91.80;;;;;;5104316;28;20101;-56
2022/08/31 10:32:05;;;;;;;;;;;25.30;91.80;;;;;;5103836;28;19908;-56
2022/08/31 10:37:30;;;;;;;;;;;25.30;92.00;;;;;;5106099;28;19915;-52
2022/08/31 10:40:01;;;;;;;;;;;25.30;91.90;;;;;;5105760;28;19908;-56
2022/08/31 10:42:36;;;;;;;;;;;25.30;91.90;;;;;;5104632;28;20227;-54
2022/08/31 10:45:09;;;;;;;;;;;25.40;92.00;;;;;;5104494;28;19946;-54
2022/08/31 10:47:40;;;;;;;;;;;25.30;91.90;;;;;;5104101;28;19916;-53
2022/08/31 10:50:07;;;;;;;;;;;25.30;91.90;;;;;;5104107;28;20161;-53
2022/08/31 10:52:41;;;;;;;;;;;25.30;92.00;;;;;;5103593;28;19908;-56
2022/08/31 10:55:15;;;;;;;;;;;25.40;92.00;;;;;;5104496;28;19916;-50
2022/08/31 10:57:46;;;;;;;;;;;25.30;92.00;;;;;;5105177;28;20006;-54
2022/08/31 11:03:06;;;;;;;;;;;25.30;91.90;;;;;;5105744;28;19946;-51
2022/08/31 11:05:36;;;;;;;;;;;25.30;91.80;;;;;;5106021;28;20127;-55
2022/08/31 11:08:05;;;;;;;;;;;25.30;91.80;;;;;;5105559;28;19915;-56
2022/08/31 11:10:44;;;;;;;;;;;25.40;91.80;;;;;;5105837;28;19912;-54
2022/08/31 11:13:24;;;;;;;;;;;25.40;91.80;;;;;;5105452;28;19915;-53
2022/08/31 11:15:57;;;;;;;;;;;25.40;91.80;;;;;;5105627;28;19932;-57
2022/08/31 11:18:47;;;;;;;;;;;25.40;91.80;;;;;;5105728;28;19908;-54
2022/08/31 11:21:19;;;;;;;;;;;25.40;91.80;;;;;;5067603;28;19912;-53
2022/08/31 11:23:54;;;;;;;;;;;25.40;91.80;;;;;;5105184;28;19908;-54
2022/08/31 11:26:32;;;;;;;;;;;25.40;91.60;;;;;;5105033;28;20112;-60
2022/08/31 11:29:14;;;;;;;;;;;25.50;91.70;;;;;;5105117;28;20077;-56
2022/08/31 11:31:40;;;;;;;;;;;25.50;91.60;;;;;;5105064;28;20109;-55
2022/08/31 11:34:13;;;;;;;;;;;25.60;91.60;;;;;;5105050;28;19909;-53
2022/08/31 11:36:48;;;;;;;;;;;25.60;91.50;;;;;;5105036;28;19908;-54
2022/08/31 11:39:19;;;;;;;;;;;25.70;91.50;;;;;;5104952;28;19919;-54
2022/08/31 11:41:46;;;;;;;;;;;25.70;91.60;;;;;;5105178;28;19987;-55
2022/08/31 11:44:28;;;;;;;;;;;25.70;91.50;;;;;;5104778;28;19918;-55
2022/08/31 11:47:05;;;;;;;;;;;25.80;91.50;;;;;;5104839;28;19910;-52
2022/08/31 11:49:35;;;;;;;;;;;25.80;91.40;;;;;;5086682;28;19992;-54
2022/08/31 11:52:09;;;;;;;;;;;25.90;91.40;;;;;;5104775;28;20211;-54
2022/08/31 11:54:41;;;;;;;;;;;25.90;91.60;;;;;;5104878;28;19912;-59
2022/08/31 11:57:14;;;;;;;;;;;26.00;91.40;;;;;;5104811;28;19909;-55
2022/08/31 11:59:49;;;;;;;;;;;26.00;91.40;;;;;;5104901;28;20151;-55
2022/08/31 12:02:19;;;;;;;;;;;26.10;91.30;;;;;;5104163;28;19915;-56
2022/08/31 12:04:46;;;;;;;;;;;26.10;91.30;;;;;;5104483;28;20204;-55
2022/08/31 12:07:23;;;;;;;;;;;26.20;91.30;;;;;;5104830;28;19904;-53
2022/08/31 12:09:52;;;;;;;;;;;26.20;91.20;;;;;;5104660;28;19916;-60
2022/08/31 12:12:41;;;;;;;;;;;26.30;91.20;;;;;;5104674;28;19904;-58
2022/08/31 12:15:28;;;;;;;;;;;26.30;91.10;;;;;;5104682;28;19920;-55
2022/08/31 12:18:03;;;;;;;;;;;26.30;91.00;;;;;;5063574;28;19904;-55
2022/08/31 12:23:34;;;;;;;;;;;26.50;91.00;;;;;;5104547;28;19919;-53
2022/08/31 12:26:15;;;;;;;;;;;26.50;91.00;;;;;;5104811;28;19920;-54
2022/08/31 12:29:01;;;;;;;;;;;26.50;90.90;;;;;;5104286;28;19904;-55
2022/08/31 12:31:27;;;;;;;;;;;26.50;90.90;;;;;;5104352;28;19920;-52
2022/08/31 12:34:04;;;;;;;;;;;26.50;90.70;;;;;;5104258;28;19919;-54
2022/08/31 12:36:32;;;;;;;;;;;26.50;90.70;;;;;;5104150;28;19908;-54
2022/08/31 12:39:05;;;;;;;;;;;26.50;90.40;;;;;;5104200;28;20249;-57
2022/08/31 12:41:31;;;;;;;;;;;26.50;90.60;;;;;;5104154;28;19915;-54
2022/08/31 12:43:57;;;;;;;;;;;26.60;90.90;;;;;;5104188;28;19908;-54
2022/08/31 12:46:26;;;;;;;;;;;26.60;90.90;;;;;;5104120;28;20192;-53
2022/08/31 12:48:59;;;;;;;;;;;26.60;91.00;;;;;;5103951;28;19914;-54
2022/08/31 12:51:43;;;;;;;;;;;26.60;91.00;;;;;;5104116;28;19931;-55
2022/08/31 12:54:28;;;;;;;;;;;26.60;91.00;;;;;;5104113;28;19947;-55
2022/08/31 12:56:58;;;;;;;;;;;26.60;91.10;;;;;;5103951;28;20207;-54
2022/08/31 12:59:44;;;;;;;;;;;26.60;90.80;;;;;;5104187;28;19916;-54
2022/08/31 13:02:13;;;;;;;;;;;26.60;90.90;;;;;;5103859;28;20014;-55
2022/08/31 13:04:43;;;;;;;;;;;26.60;91.00;;;;;;5104158;28;19912;-58
2022/08/31 13:07:14;;;;;;;;;;;26.70;91.00;;;;;;5103958;28;19904;-53
2022/08/31 13:09:41;;;;;;;;;;;26.70;91.00;;;;;;5104017;28;19924;-56
2022/08/31 13:12:07;;;;;;;;;;;26.70;91.10;;;;;;5103745;28;19908;-55
2022/08/31 13:14:42;;;;;;;;;;;26.70;91.20;;;;;;5105334;28;19954;-56
2022/08/31 13:17:16;;;;;;;;;;;26.70;91.30;;;;;;5107665;28;19908;-55
2022/08/31 13:19:46;;;;;;;;;;;26.70;91.20;;;;;;5107691;28;19931;-59
2022/08/31 13:22:15;;;;;;;;;;;26.80;91.60;;;;;;5107476;28;19953;-56
2022/08/31 13:24:43;;;;;;;;;;;26.80;91.40;;;;;;5107824;28;19920;-54
2022/08/31 13:27:11;;;;;;;;;;;26.80;91.40;;;;;;5107643;28;19908;-55
2022/08/31 13:29:44;;;;;;;;;;;26.90;91.40;;;;;;5107531;28;19955;-54
2022/08/31 13:32:12;;;;;;;;;;;26.90;91.50;;;;;;5107589;28;19979;-55
2022/08/31 13:34:40;;;;;;;;;;;26.80;91.60;;;;;;5107671;28;19912;-55
2022/08/31 13:37:13;;;;;;;;;;;26.90;91.70;;;;;;5107369;28;20138;-54
2022/08/31 13:39:46;;;;;;;;;;;26.90;91.50;;;;;;5107539;28;19908;-52
2022/08/31 13:42:31;;;;;;;;;;;26.90;91.70;;;;;;5107315;28;19915;-56
2022/08/31 13:44:58;;;;;;;;;;;27.00;91.60;;;;;;5107353;28;19971;-55
2022/08/31 13:47:27;;;;;;;;;;;27.00;91.70;;;;;;5107229;28;19908;-55
2022/08/31 13:50:16;;;;;;;;;;;27.00;91.60;;;;;;5107258;28;19989;-54
2022/08/31 13:52:51;;;;;;;;;;;27.00;91.70;;;;;;5107116;28;19943;-54
2022/08/31 13:55:28;;;;;;;;;;;27.00;91.70;;;;;;5107357;28;19908;-52
2022/08/31 13:57:58;;;;;;;;;;;27.10;91.70;;;;;;5106937;28;20188;-54
2022/08/31 14:00:31;;;;;;;;;;;27.10;91.90;;;;;;5107254;28;19935;-56
2022/08/31 14:02:57;;;;;;;;;;;27.10;91.80;;;;;;5106983;28;19908;-55
2022/08/31 14:05:29;;;;;;;;;;;27.20;91.90;;;;;;5107095;28;19923;-54
2022/08/31 14:07:57;;;;;;;;;;;27.20;91.80;;;;;;5106837;28;19945;-54
2022/08/31 14:10:34;;;;;;;;;;;27.20;92.00;;;;;;5107047;28;19923;-54
2022/08/31 14:13:30;;;;;;;;;;;27.20;91.70;;;;;;5106716;28;20078;-55
2022/08/31 14:16:01;;;;;;;;;;;27.20;91.70;;;;;;5104970;28;19916;-55
2022/08/31 14:18:36;;;;;;;;;;;27.30;91.80;;;;;;5106666;28;19905;-53
2022/08/31 14:21:05;;;;;;;;;;;27.30;91.80;;;;;;5106881;28;19912;-56
2022/08/31 14:23:31;;;;;;;;;;;27.30;91.70;;;;;;5106593;28;19911;-54
2022/08/31 14:25:59;;;;;;;;;;;27.30;91.60;;;;;;5106102;28;19912;-54
2022/08/31 14:28:41;;;;;;;;;;;27.30;91.60;;;;;;5106346;28;20100;-55
2022/08/31 14:31:13;;;;;;;;;;;27.30;91.60;;;;;;5106899;28;19945;-55
2022/08/31 14:33:39;;;;;;;;;;;27.30;91.60;;;;;;5106197;28;19917;-54
2022/08/31 14:36:13;;;;;;;;;;;27.40;91.70;;;;;;5106707;28;19916;-54
2022/08/31 14:38:42;;;;;;;;;;;27.40;91.70;;;;;;5106510;28;19943;-53
2022/08/31 14:41:11;;;;;;;;;;;27.40;91.80;;;;;;5105936;28;19915;-55
2022/08/31 14:43:38;;;;;;;;;;;27.40;91.80;;;;;;5106143;28;19922;-54
2022/08/31 14:46:05;;;;;;;;;;;27.40;91.60;;;;;;5106544;28;19916;-56
2022/08/31 14:48:32;;;;;;;;;;;27.40;91.60;;;;;;5105979;28;19916;-53
2022/08/31 14:50:58;;;;;;;;;;;27.50;91.60;;;;;;5106305;28;20193;-53
2022/08/31 14:53:25;;;;;;;;;;;27.50;91.50;;;;;;5106097;28;19908;-55